Sabot, Virginia
Current Conditions -  °F | °C
As of 10:54 PM on Saturday 22 Nov 2014 (Local Time) from KOFP Reporting Station
Clear Clear  
Wind Chill: 31°   Ceiling: Unl
Heat Index: 36°   Visibility: 10mi
Dew Point: 19°   Wind: 6mph
Humidity: 50%   Direction: 180°S
Pressure: 30.32"   Gusts: NA
Location:  37.6517°N, 77.7212°W
Report Text: KOFP 230354Z AUTO 18005KT 10SM CLR 02/M07 A3032 RMK AO2 SLP268 T00221072
Loading
Personal Weather Stations






























Interactive Weather Map New forecast layout! Learn more

10-Day Weather Forecast

Advertisements
Track Severe Weather on mobile